createdAt,value
2019-02-27T00:00:47.774Z,7.37
2019-02-27T00:01:52.083Z,7.17
2019-02-27T00:02:56.174Z,6.78
2019-02-27T00:04:02.410Z,7.40
2019-02-27T00:05:08.402Z,7.25
2019-02-27T00:06:12.945Z,6.90
2019-02-27T00:07:20.867Z,6.62
2019-02-27T00:08:26.778Z,6.22
2019-02-27T00:09:27.734Z,6.78
2019-02-27T00:10:31.181Z,5.55
2019-02-27T00:11:34.692Z,5.67
2019-02-27T00:12:38.141Z,5.45
2019-02-27T00:13:41.704Z,5.90
2019-02-27T00:14:45.206Z,6.10
2019-02-27T00:15:48.702Z,6.28
2019-02-27T00:16:52.222Z,5.62
2019-02-27T00:17:55.749Z,5.25
2019-02-27T00:18:59.392Z,5.30
2019-02-27T00:20:04.999Z,5.60
2019-02-27T00:21:10.952Z,5.65
2019-02-27T00:22:14.942Z,5.60
2019-02-27T00:23:18.514Z,5.67
2019-02-27T00:24:21.937Z,5.47
2019-02-27T00:25:25.371Z,5.50
2019-02-27T00:26:28.796Z,6.20
2019-02-27T00:27:32.288Z,5.40
2019-02-27T00:28:35.747Z,5.67
2019-02-27T00:29:39.240Z,6.12
2019-02-27T00:30:42.664Z,5.28
2019-02-27T00:31:46.192Z,6.40
2019-02-27T00:32:51.390Z,5.40
2019-02-27T00:33:59.589Z,5.50
2019-02-27T00:35:00.158Z,6.20
2019-02-27T00:36:03.784Z,5.97
2019-02-27T00:37:07.209Z,5.55
2019-02-27T00:38:10.661Z,5.90
2019-02-27T00:39:14.186Z,5.67
2019-02-27T00:40:17.615Z,6.95
2019-02-27T00:41:21.063Z,5.55
2019-02-27T00:42:33.339Z,6.00
2019-02-27T00:43:29.784Z,4.60
2019-02-27T00:44:34.710Z,5.22
2019-02-27T00:45:40.121Z,5.60
2019-02-27T00:46:43.941Z,5.80
2019-02-27T00:47:52.790Z,4.72
2019-02-27T00:48:53.863Z,5.30
2019-02-27T00:49:57.302Z,5.30
2019-02-27T00:51:00.753Z,4.97
2019-02-27T00:52:04.247Z,4.67
2019-02-27T00:53:07.765Z,5.03
2019-02-27T00:54:11.192Z,5.05
2019-02-27T00:55:14.656Z,4.85
2019-02-27T00:56:18.124Z,4.70
2019-02-27T00:57:21.616Z,5.53
2019-02-27T00:58:27.024Z,5.53
2019-02-27T00:59:32.910Z,6.47
2019-02-27T01:00:38.949Z,5.65
2019-02-27T01:01:40.819Z,5.12
2019-02-27T01:02:44.246Z,4.50
2019-02-27T01:03:47.747Z,5.67
2019-02-27T01:04:51.163Z,5.75
2019-02-27T01:05:54.747Z,4.78
2019-02-27T01:06:58.180Z,5.47
2019-02-27T01:08:01.595Z,4.42
2019-02-27T01:09:07.277Z,5.55
2019-02-27T01:10:12.863Z,5.78
2019-02-27T01:11:18.405Z,4.90
2019-02-27T01:12:22.968Z,5.17
2019-02-27T01:13:28.949Z,5.80
2019-02-27T01:14:31.967Z,5.28
2019-02-27T01:15:35.450Z,6.45
2019-02-27T01:16:38.910Z,5.12
2019-02-27T01:17:42.981Z,5.53
2019-02-27T01:18:46.487Z,5.05
2019-02-27T01:19:49.917Z,5.20
2019-02-27T01:20:53.340Z,4.90
2019-02-27T01:21:56.789Z,5.53
2019-02-27T01:23:00.217Z,5.70
2019-02-27T01:24:03.706Z,4.75
2019-02-27T01:25:07.380Z,5.55
2019-02-27T01:26:10.877Z,5.50
2019-02-27T01:27:14.325Z,6.30
2019-02-27T01:28:17.755Z,5.60
2019-02-27T01:29:21.251Z,6.30
2019-02-27T01:30:24.944Z,5.50
2019-02-27T01:31:28.342Z,5.60
2019-02-27T01:32:31.854Z,5.25
2019-02-27T01:33:38.118Z,5.15
2019-02-27T01:34:44.210Z,5.85
2019-02-27T01:35:45.691Z,5.80
2019-02-27T01:36:49.117Z,4.85
2019-02-27T01:37:52.585Z,5.47
2019-02-27T01:38:56.013Z,5.25
2019-02-27T01:39:59.455Z,5.00
2019-02-27T01:41:02.944Z,4.72
2019-02-27T01:42:06.370Z,5.00
2019-02-27T01:43:09.809Z,4.45
2019-02-27T01:44:13.668Z,5.00
2019-02-27T01:45:20.622Z,5.17
2019-02-27T01:46:25.179Z,4.33
2019-02-27T01:47:28.140Z,4.03
2019-02-27T01:48:31.582Z,4.75
2019-02-27T01:49:35.030Z,4.37
2019-02-27T01:50:38.594Z,4.83
2019-02-27T01:51:42.031Z,4.35
2019-02-27T01:52:45.458Z,6.40
2019-02-27T01:53:48.903Z,5.55
2019-02-27T01:54:52.360Z,5.12
2019-02-27T01:55:56.401Z,4.75
2019-02-27T01:57:02.915Z,4.80
2019-02-27T01:58:09.280Z,4.28
2019-02-27T01:59:11.004Z,4.92
2019-02-27T02:00:14.665Z,4.55
2019-02-27T02:01:18.111Z,4.83
2019-02-27T02:02:21.539Z,3.85
2019-02-27T02:03:25.042Z,3.50
2019-02-27T02:04:28.555Z,3.72
2019-02-27T02:05:32.119Z,3.92
2019-02-27T02:06:35.549Z,3.75
2019-02-27T02:07:40.302Z,4.47
2019-02-27T02:08:47.978Z,4.05
2019-02-27T02:09:52.185Z,3.70
2019-02-27T02:10:56.159Z,3.60
2019-02-27T02:12:01.869Z,3.95
2019-02-27T02:13:14.814Z,4.10
2019-02-27T02:14:21.966Z,4.30
2019-02-27T02:15:45.029Z,4.45
2019-02-27T02:17:00.484Z,5.20
2019-02-27T02:18:23.432Z,4.55
2019-02-27T02:20:02.960Z,4.28
2019-02-27T02:21:25.671Z,4.62
2019-02-27T02:22:32.160Z,5.90
2019-02-27T02:23:58.105Z,4.30
2019-02-27T02:25:20.615Z,4.80
2019-02-27T02:26:34.751Z,4.90
2019-02-27T02:28:14.671Z,5.62
2019-02-27T02:29:40.030Z,5.22
2019-02-27T02:31:05.032Z,4.87
2019-02-27T02:32:28.752Z,5.10
2019-02-27T02:33:43.883Z,4.40
2019-02-27T02:34:58.869Z,4.55
2019-02-27T02:36:05.358Z,4.90
2019-02-27T02:37:17.325Z,4.58
2019-02-27T02:38:52.116Z,5.00
2019-02-27T02:40:16.604Z,4.95
2019-02-27T02:41:46.711Z,4.15
2019-02-27T02:43:13.935Z,5.00
2019-02-27T02:44:29.305Z,5.37
2019-02-27T02:45:44.296Z,4.70
2019-02-27T02:47:21.273Z,4.70
2019-02-27T02:48:31.119Z,5.00
2019-02-27T02:49:50.138Z,4.80
2019-02-27T02:50:56.621Z,4.60
2019-02-27T02:52:17.610Z,4.85
2019-02-27T02:53:38.690Z,4.42
2019-02-27T02:55:04.212Z,4.90
2019-02-27T02:56:28.371Z,4.25
2019-02-27T02:57:37.460Z,4.03
2019-02-27T02:58:48.432Z,4.12
2019-02-27T03:00:03.577Z,4.87
2019-02-27T03:01:15.814Z,4.45
2019-02-27T03:02:41.249Z,4.60
2019-02-27T03:03:56.438Z,4.30
2019-02-27T03:05:23.217Z,4.15
2019-02-27T03:06:46.140Z,4.08
2019-02-27T03:08:04.238Z,4.15
2019-02-27T03:09:22.116Z,3.40
2019-02-27T03:10:43.855Z,3.92
2019-02-27T03:11:54.758Z,4.45
2019-02-27T03:13:41.623Z,4.10
2019-02-27T03:14:44.353Z,4.08
2019-02-27T03:15:50.834Z,4.85
2019-02-27T03:16:59.934Z,3.83
2019-02-27T03:18:26.267Z,4.25
2019-02-27T03:19:41.283Z,5.10
2019-02-27T03:21:17.674Z,5.00
2019-02-27T03:22:30.087Z,4.40
2019-02-27T03:23:39.492Z,3.70
2019-02-27T03:24:51.696Z,4.22
2019-02-27T03:26:03.650Z,4.55
2019-02-27T03:27:10.120Z,4.85
2019-02-27T03:28:22.109Z,4.90
2019-02-27T03:29:34.435Z,4.67
2019-02-27T03:31:01.796Z,4.47
2019-02-27T03:32:11.094Z,5.70
2019-02-27T03:33:45.756Z,4.90
2019-02-27T03:35:17.824Z,4.85
2019-02-27T03:36:46.623Z,4.10
2019-02-27T03:37:56.150Z,4.40
2019-02-27T03:39:11.384Z,3.42
2019-02-27T03:40:20.463Z,3.50
2019-02-27T03:41:32.605Z,3.25
2019-02-27T03:42:41.763Z,3.60
2019-02-27T03:44:02.735Z,4.58
2019-02-27T03:45:30.639Z,4.47
2019-02-27T03:46:44.241Z,4.60
2019-02-27T03:47:53.507Z,4.25
2019-02-27T03:49:03.729Z,3.30
2019-02-27T03:50:27.368Z,3.10
2019-02-27T03:51:36.546Z,3.70
2019-02-27T03:53:03.861Z,3.40
2019-02-27T03:54:34.163Z,3.87
2019-02-27T03:55:57.080Z,3.30
2019-02-27T03:57:09.466Z,3.83
2019-02-27T03:58:18.870Z,3.20
2019-02-27T03:59:34.152Z,4.05
2019-02-27T04:00:53.006Z,3.47
2019-02-27T04:02:06.952Z,3.75
2019-02-27T04:03:18.967Z,3.62
2019-02-27T04:04:43.484Z,3.85
2019-02-27T04:05:58.741Z,3.20
2019-02-27T04:07:31.519Z,3.15
2019-02-27T04:08:55.596Z,3.70
2019-02-27T04:09:59.009Z,3.05
2019-02-27T04:11:05.556Z,3.25
2019-02-27T04:12:07.672Z,2.92
2019-02-27T04:13:11.105Z,3.25
2019-02-27T04:14:28.831Z,3.37
2019-02-27T04:15:32.394Z,3.10
2019-02-27T04:16:38.037Z,2.72
2019-02-27T04:17:39.928Z,2.92
2019-02-27T04:18:43.348Z,3.50
2019-02-27T04:19:46.912Z,2.92
2019-02-27T04:20:51.018Z,3.05
2019-02-27T04:22:00.560Z,2.87
2019-02-27T04:22:59.798Z,2.92
2019-02-27T04:24:03.234Z,2.95
2019-02-27T04:25:08.301Z,3.50
2019-02-27T04:26:11.789Z,3.20
2019-02-27T04:27:20.044Z,3.00
2019-02-27T04:28:20.455Z,2.30
2019-02-27T04:29:23.880Z,2.67
2019-02-27T04:30:27.319Z,3.12
2019-02-27T04:31:30.823Z,3.35
2019-02-27T04:32:34.295Z,2.52
2019-02-27T04:33:37.741Z,2.65
2019-02-27T04:34:41.171Z,3.83
2019-02-27T04:35:44.644Z,3.90
2019-02-27T04:36:48.060Z,2.95
2019-02-27T04:37:53.861Z,2.90
2019-02-27T04:38:56.675Z,3.35
2019-02-27T04:40:00.125Z,3.92
2019-02-27T04:41:03.608Z,3.58
2019-02-27T04:42:07.114Z,3.20
2019-02-27T04:43:10.576Z,2.70
2019-02-27T04:44:14.000Z,2.92
2019-02-27T04:45:17.500Z,3.05
2019-02-27T04:46:21.665Z,3.35
2019-02-27T04:47:28.886Z,3.85
2019-02-27T04:48:31.039Z,3.37
2019-02-27T04:49:34.822Z,3.00
2019-02-27T04:50:41.733Z,3.08
2019-02-27T04:51:44.980Z,3.17
2019-02-27T04:52:48.404Z,3.20
2019-02-27T04:53:51.859Z,2.77
2019-02-27T04:54:55.367Z,2.60
2019-02-27T04:55:58.876Z,2.95
2019-02-27T04:57:02.304Z,3.60
2019-02-27T04:58:08.585Z,2.42
2019-02-27T04:59:10.939Z,3.10
2019-02-27T05:00:14.521Z,3.08
2019-02-27T05:01:18.013Z,4.70
2019-02-27T05:02:21.441Z,3.30
2019-02-27T05:03:25.840Z,3.95
2019-02-27T05:04:34.892Z,2.95
2019-02-27T05:05:35.210Z,2.77
2019-02-27T05:06:38.633Z,3.50
2019-02-27T05:07:42.081Z,3.17
2019-02-27T05:08:45.502Z,3.95
2019-02-27T05:09:48.961Z,4.12
2019-02-27T05:10:52.469Z,3.95
2019-02-27T05:11:55.895Z,3.50
2019-02-27T05:12:59.326Z,3.92
2019-02-27T05:14:02.823Z,4.15
2019-02-27T05:15:08.403Z,4.17
2019-02-27T05:16:14.050Z,4.10
2019-02-27T05:17:21.156Z,3.47
2019-02-27T05:18:22.240Z,4.10
2019-02-27T05:19:25.672Z,3.77
2019-02-27T05:20:29.132Z,4.35
2019-02-27T05:21:32.595Z,4.47
2019-02-27T05:22:36.113Z,5.90
2019-02-27T05:23:39.547Z,4.60
2019-02-27T05:24:42.979Z,4.67
2019-02-27T05:25:46.443Z,4.70
2019-02-27T05:26:49.879Z,5.53
2019-02-27T05:27:53.317Z,5.08
2019-02-27T05:28:56.745Z,5.30
2019-02-27T05:30:00.425Z,4.97
2019-02-27T05:31:03.950Z,5.30
2019-02-27T05:32:07.449Z,5.17
2019-02-27T05:33:10.883Z,4.53
2019-02-27T05:34:14.311Z,3.65
2019-02-27T05:35:18.077Z,4.60
2019-02-27T05:36:21.598Z,4.42
2019-02-27T05:37:25.132Z,4.55
2019-02-27T05:38:28.701Z,4.40
2019-02-27T05:39:33.807Z,4.83
2019-02-27T05:40:37.376Z,5.33
2019-02-27T05:41:40.929Z,4.50
2019-02-27T05:42:44.506Z,4.65
2019-02-27T05:43:48.677Z,4.87
2019-02-27T05:44:55.693Z,5.03
2019-02-27T05:45:57.585Z,4.60
2019-02-27T05:47:01.170Z,4.55
2019-02-27T05:48:04.666Z,4.37
2019-02-27T05:49:08.232Z,3.52
2019-02-27T05:50:12.720Z,4.60
2019-02-27T05:51:16.222Z,7.55
2019-02-27T05:52:19.676Z,5.47
2019-02-27T05:53:23.188Z,5.67
2019-02-27T05:54:26.720Z,5.53
2019-02-27T05:55:30.132Z,5.47
2019-02-27T05:56:33.637Z,4.28
2019-02-27T05:57:37.163Z,4.78
2019-02-27T05:58:40.762Z,5.95
2019-02-27T05:59:44.199Z,8.48
2019-02-27T06:00:47.762Z,4.85
2019-02-27T06:01:51.339Z,5.58
2019-02-27T06:02:56.725Z,4.75
2019-02-27T06:04:00.082Z,4.90
2019-02-27T06:05:04.559Z,5.25
2019-02-27T06:06:11.528Z,4.78
2019-02-27T06:07:18.632Z,4.05
2019-02-27T06:08:20.091Z,3.90
2019-02-27T06:09:23.511Z,3.75
2019-02-27T06:10:27.012Z,3.95
2019-02-27T06:11:33.018Z,3.95
2019-02-27T06:12:38.166Z,4.12
2019-02-27T06:13:40.960Z,4.05
2019-02-27T06:14:44.449Z,3.87
2019-02-27T06:15:49.210Z,3.52
2019-02-27T06:16:52.725Z,4.30
2019-02-27T06:17:56.314Z,4.30
2019-02-27T06:18:59.779Z,4.40
2019-02-27T06:20:07.717Z,4.45
2019-02-27T06:21:08.544Z,4.75
2019-02-27T06:22:11.966Z,4.55
2019-02-27T06:23:15.407Z,4.10
2019-02-27T06:24:18.850Z,5.03
2019-02-27T06:25:23.949Z,5.00
2019-02-27T06:26:27.421Z,4.92
2019-02-27T06:27:31.689Z,4.83
2019-02-27T06:28:35.130Z,4.80
2019-02-27T06:29:38.589Z,4.70
2019-02-27T06:30:42.023Z,4.60
2019-02-27T06:31:45.448Z,4.08
2019-02-27T06:32:48.948Z,4.67
2019-02-27T06:33:52.477Z,4.50
2019-02-27T06:34:59.278Z,5.00
2019-02-27T06:36:01.146Z,4.65
2019-02-27T06:37:04.739Z,4.45
2019-02-27T06:38:08.237Z,4.75
2019-02-27T06:39:11.704Z,5.55
2019-02-27T06:40:18.227Z,4.92
2019-02-27T06:41:21.938Z,5.25
2019-02-27T06:42:25.463Z,4.53
2019-02-27T06:43:29.050Z,4.70
2019-02-27T06:44:32.859Z,4.30
2019-02-27T06:45:36.903Z,4.20
2019-02-27T06:46:40.502Z,4.03
2019-02-27T06:47:44.111Z,4.40
2019-02-27T06:48:47.838Z,4.70
2019-02-27T06:49:51.941Z,4.75
2019-02-27T06:50:58.311Z,4.90
2019-02-27T06:52:01.533Z,4.87
2019-02-27T06:53:05.699Z,4.37
2019-02-27T06:54:09.197Z,4.20
2019-02-27T06:55:14.001Z,4.60
2019-02-27T06:56:18.062Z,4.17
2019-02-27T06:57:22.318Z,4.10
2019-02-27T06:58:25.868Z,4.58
2019-02-27T06:59:29.308Z,4.40
2019-02-27T07:00:36.767Z,3.50
2019-02-27T07:01:38.728Z,3.60
2019-02-27T07:02:42.529Z,3.95
2019-02-27T07:03:46.100Z,3.47
2019-02-27T07:04:50.096Z,3.80
2019-02-27T07:05:53.806Z,3.95
2019-02-27T07:06:58.060Z,3.98
2019-02-27T07:08:02.160Z,4.50
2019-02-27T07:09:11.305Z,3.80
2019-02-27T07:10:19.633Z,3.80
2019-02-27T07:11:20.300Z,3.72
2019-02-27T07:12:23.816Z,3.90
2019-02-27T07:13:29.865Z,4.05
2019-02-27T07:14:32.908Z,4.20
2019-02-27T07:15:36.696Z,4.30
2019-02-27T07:16:40.328Z,4.50
2019-02-27T07:17:44.005Z,4.75
2019-02-27T07:18:47.445Z,5.55
2019-02-27T07:19:50.872Z,4.55
2019-02-27T07:20:55.632Z,4.60
2019-02-27T07:21:59.629Z,3.92
2019-02-27T07:23:03.225Z,4.28
2019-02-27T07:24:07.092Z,5.25
2019-02-27T07:25:15.197Z,4.47
2019-02-27T07:26:18.724Z,5.22
2019-02-27T07:27:22.175Z,9.93
2019-02-27T07:28:25.620Z,5.55
2019-02-27T07:29:29.161Z,6.75
2019-02-27T07:30:32.660Z,8.53
2019-02-27T07:31:36.088Z,5.00
2019-02-27T07:32:39.540Z,6.00
2019-02-27T07:33:42.994Z,5.65
2019-02-27T07:34:49.481Z,6.15
2019-02-27T07:35:51.602Z,4.42
2019-02-27T07:36:55.038Z,4.62
2019-02-27T07:37:58.505Z,5.90
2019-02-27T07:39:01.952Z,5.28
2019-02-27T07:40:11.033Z,5.20
2019-02-27T07:41:17.536Z,4.78
2019-02-27T07:42:19.662Z,7.55
2019-02-27T07:43:23.136Z,4.55
2019-02-27T07:44:26.605Z,5.15
2019-02-27T07:45:30.044Z,5.83
2019-02-27T07:46:35.503Z,5.47
2019-02-27T07:47:38.676Z,5.25
2019-02-27T07:48:42.164Z,5.20
2019-02-27T07:49:45.648Z,5.20
2019-02-27T07:50:49.353Z,6.45
2019-02-27T07:51:57.118Z,5.40
2019-02-27T07:52:57.897Z,6.60
2019-02-27T07:54:01.355Z,5.42
2019-02-27T07:55:18.593Z,5.25
2019-02-27T07:56:12.088Z,5.60
2019-02-27T07:57:15.593Z,4.60
2019-02-27T07:58:19.028Z,5.05
2019-02-27T07:59:22.495Z,5.30
2019-02-27T08:00:26.509Z,4.97
2019-02-27T08:01:30.102Z,6.12
2019-02-27T08:02:33.773Z,5.30
2019-02-27T08:03:38.809Z,5.47
2019-02-27T08:04:42.370Z,5.10
2019-02-27T08:05:45.806Z,4.90
2019-02-27T08:06:49.237Z,5.70
2019-02-27T08:07:52.663Z,5.40
2019-02-27T08:08:57.190Z,5.53
2019-02-27T08:10:04.613Z,5.95
2019-02-27T08:11:06.487Z,5.95
2019-02-27T08:12:10.026Z,6.25
2019-02-27T08:13:13.476Z,7.15
2019-02-27T08:14:16.891Z,5.42
2019-02-27T08:15:20.691Z,5.08
2019-02-27T08:16:24.193Z,5.33
2019-02-27T08:17:27.633Z,5.75
2019-02-27T08:18:36.650Z,5.85
2019-02-27T08:19:36.423Z,5.75
2019-02-27T08:20:39.968Z,5.90
2019-02-27T08:21:43.407Z,5.55
2019-02-27T08:22:46.926Z,5.62
2019-02-27T08:23:50.558Z,5.55
2019-02-27T08:24:54.081Z,5.00
2019-02-27T08:25:57.533Z,5.17
2019-02-27T08:27:01.116Z,6.10
2019-02-27T08:28:04.635Z,5.47
2019-02-27T08:29:08.160Z,6.17
2019-02-27T08:30:26.936Z,5.45
2019-02-27T08:31:32.034Z,5.37
2019-02-27T08:32:35.656Z,6.58
2019-02-27T08:33:39.339Z,6.80
2019-02-27T08:34:42.779Z,12.90
2019-02-27T08:35:46.224Z,8.38
2019-02-27T08:36:49.756Z,8.20
2019-02-27T08:38:02.078Z,12.23
2019-02-27T08:38:58.631Z,10.80
2019-02-27T08:40:02.148Z,16.80
2019-02-27T08:41:05.594Z,10.75
2019-02-27T08:42:09.121Z,7.72
2019-02-27T08:43:12.584Z,7.83
2019-02-27T08:44:16.047Z,6.30
2019-02-27T08:45:26.801Z,6.75
2019-02-27T08:46:27.897Z,6.30
2019-02-27T08:47:31.372Z,6.40
2019-02-27T08:48:34.827Z,7.12
2019-02-27T08:49:38.255Z,7.08
2019-02-27T08:50:43.293Z,6.90
2019-02-27T08:51:46.923Z,6.85
2019-02-27T08:53:59.027Z,6.70
2019-02-27T08:55:05.374Z,7.28
2019-02-27T08:56:05.982Z,7.15
2019-02-27T08:57:09.493Z,6.25
2019-02-27T08:58:13.078Z,7.67
2019-02-27T08:59:16.607Z,6.37
2019-02-27T09:00:28.207Z,7.10
2019-02-27T09:01:31.770Z,7.80
2019-02-27T09:02:35.275Z,8.15
2019-02-27T09:03:39.000Z,7.60
2019-02-27T09:04:42.850Z,8.35
2019-02-27T09:05:47.800Z,8.20
2019-02-27T09:06:51.263Z,8.10
2019-02-27T09:07:54.850Z,7.60
2019-02-27T09:08:58.395Z,8.30
2019-02-27T09:10:01.988Z,8.00
2019-02-27T09:11:06.551Z,9.28
2019-02-27T09:12:13.173Z,8.33
2019-02-27T09:13:15.491Z,8.33
2019-02-27T09:14:18.945Z,8.50
2019-02-27T09:15:22.394Z,8.55
2019-02-27T09:16:26.115Z,9.63
2019-02-27T09:17:31.196Z,8.90
2019-02-27T09:18:36.500Z,8.65
2019-02-27T09:19:44.958Z,8.65
2019-02-27T09:20:45.076Z,7.60
2019-02-27T09:21:48.505Z,8.38
2019-02-27T09:22:52.038Z,11.03
2019-02-27T09:23:55.469Z,8.75
2019-02-27T09:24:59.009Z,9.00
2019-02-27T09:26:03.537Z,8.83
2019-02-27T09:27:07.081Z,9.30
2019-02-27T09:28:10.525Z,9.73
2019-02-27T09:29:18.401Z,8.95
2019-02-27T09:30:28.981Z,9.30
2019-02-27T09:31:29.143Z,8.50
2019-02-27T09:32:32.582Z,9.45
2019-02-27T09:33:38.717Z,9.63
2019-02-27T09:34:41.977Z,9.48
2019-02-27T09:35:45.511Z,9.90
2019-02-27T09:36:49.231Z,11.18
2019-02-27T09:37:52.686Z,10.13
2019-02-27T09:38:57.576Z,9.95
2019-02-27T09:40:04.818Z,10.05
2019-02-27T09:41:06.488Z,10.82
2019-02-27T09:42:09.998Z,9.95
2019-02-27T09:43:16.668Z,10.43
2019-02-27T09:44:22.971Z,9.48
2019-02-27T09:45:28.053Z,9.80
2019-02-27T09:46:31.516Z,12.82
2019-02-27T09:47:35.104Z,13.65
2019-02-27T09:48:38.543Z,20.55
2019-02-27T09:49:42.044Z,13.20
2019-02-27T09:50:48.366Z,24.30
2019-02-27T09:51:55.882Z,21.25
2019-02-27T09:52:57.229Z,46.48
2019-02-27T09:54:00.738Z,15.70
2019-02-27T09:55:04.544Z,14.68
2019-02-27T09:56:08.070Z,13.13
2019-02-27T09:57:11.528Z,11.10
2019-02-27T09:58:15.042Z,10.05
2019-02-27T09:59:19.781Z,10.15
2019-02-27T10:00:37.672Z,10.30
2019-02-27T10:01:41.211Z,10.10
2019-02-27T10:02:46.295Z,10.03
2019-02-27T10:03:51.990Z,10.00
2019-02-27T10:04:55.083Z,9.40
2019-02-27T10:05:58.678Z,12.13
2019-02-27T10:07:02.211Z,17.30
2019-02-27T10:08:07.562Z,12.55
2019-02-27T10:09:14.197Z,10.70
2019-02-27T10:10:17.707Z,10.38
2019-02-27T10:11:22.365Z,14.33
2019-02-27T10:12:27.774Z,10.70
2019-02-27T10:13:31.505Z,9.25
2019-02-27T10:14:35.015Z,12.43
2019-02-27T10:15:38.530Z,13.65
2019-02-27T10:16:42.045Z,9.80
2019-02-27T10:17:45.732Z,10.50
2019-02-27T10:18:49.109Z,10.90
2019-02-27T10:19:52.538Z,9.25
2019-02-27T10:20:56.441Z,10.58
2019-02-27T10:21:59.991Z,10.15
2019-02-27T10:23:03.592Z,11.88
2019-02-27T10:24:07.128Z,12.30
2019-02-27T10:25:10.858Z,10.53
2019-02-27T10:26:16.577Z,10.60
2019-02-27T10:27:19.664Z,10.70
2019-02-27T10:28:23.282Z,11.20
2019-02-27T10:29:26.747Z,9.60
2019-02-27T10:30:30.512Z,10.78
2019-02-27T10:31:34.009Z,9.95
2019-02-27T10:32:37.549Z,10.68
2019-02-27T10:33:42.964Z,8.55
2019-02-27T10:34:46.214Z,10.23
2019-02-27T10:35:49.648Z,11.12
2019-02-27T10:36:53.188Z,11.45
2019-02-27T10:37:56.883Z,9.58
2019-02-27T10:39:02.034Z,10.43
2019-02-27T10:40:17.252Z,11.00
2019-02-27T10:41:23.252Z,11.83
2019-02-27T10:42:26.927Z,11.73
2019-02-27T10:43:30.609Z,10.45
2019-02-27T10:44:34.531Z,11.22
2019-02-27T10:45:38.134Z,11.73
2019-02-27T10:46:41.615Z,11.70
2019-02-27T10:47:45.428Z,11.60
2019-02-27T10:48:49.175Z,12.37
2019-02-27T10:49:53.034Z,11.85
2019-02-27T10:50:56.722Z,13.05
2019-02-27T10:52:00.359Z,14.10
2019-02-27T10:53:04.381Z,13.30
2019-02-27T10:54:08.190Z,12.70
2019-02-27T10:55:14.873Z,12.37
2019-02-27T10:56:18.281Z,11.10
2019-02-27T10:57:21.732Z,15.48
2019-02-27T10:58:25.168Z,13.90
2019-02-27T10:59:28.668Z,12.28
2019-02-27T11:00:33.232Z,11.60
2019-02-27T11:01:37.069Z,12.33
2019-02-27T11:02:40.874Z,13.32
2019-02-27T11:03:44.449Z,12.78
2019-02-27T11:04:49.967Z,13.45
2019-02-27T11:05:55.551Z,15.35
2019-02-27T11:06:59.095Z,11.80
2019-02-27T11:08:02.926Z,12.53
2019-02-27T11:09:08.949Z,11.25
2019-02-27T11:10:12.930Z,11.68
2019-02-27T11:11:16.656Z,11.88
2019-02-27T11:12:20.189Z,12.70
2019-02-27T11:13:23.862Z,11.12
2019-02-27T11:14:31.740Z,10.38
2019-02-27T11:15:33.149Z,11.43
2019-02-27T11:16:36.684Z,10.05
2019-02-27T11:17:40.416Z,10.00
2019-02-27T11:18:43.888Z,10.40
2019-02-27T11:19:48.893Z,9.28
2019-02-27T11:20:55.728Z,10.35
2019-02-27T11:21:59.177Z,11.50
2019-02-27T11:23:06.727Z,11.48
2019-02-27T11:24:07.847Z,10.35
2019-02-27T11:25:14.338Z,10.65
2019-02-27T11:26:17.872Z,11.15
2019-02-27T11:27:21.313Z,12.13
2019-02-27T11:28:24.749Z,10.60
2019-02-27T11:29:28.321Z,11.38
2019-02-27T11:30:36.804Z,9.25
2019-02-27T11:31:42.303Z,10.30
2019-02-27T11:32:45.271Z,9.58
2019-02-27T11:33:48.801Z,9.83
2019-02-27T11:34:52.247Z,9.03
2019-02-27T11:35:55.754Z,10.78
2019-02-27T11:36:59.216Z,9.05
2019-02-27T11:38:02.768Z,24.92
2019-02-27T11:39:07.072Z,13.55
2019-02-27T11:40:13.354Z,11.12
2019-02-27T11:41:16.856Z,9.30
2019-02-27T11:42:20.326Z,9.23
2019-02-27T11:43:24.003Z,9.30
2019-02-27T11:44:27.531Z,8.53
2019-02-27T11:45:31.046Z,7.83
2019-02-27T11:46:35.125Z,8.23
2019-02-27T11:47:44.693Z,8.95
2019-02-27T11:48:45.028Z,8.50
2019-02-27T11:49:48.548Z,8.00
2019-02-27T11:50:52.362Z,9.28
2019-02-27T11:51:57.027Z,9.70
2019-02-27T11:53:02.709Z,9.55
2019-02-27T11:54:08.256Z,8.38
2019-02-27T11:55:14.838Z,9.65
2019-02-27T11:56:20.318Z,9.53
2019-02-27T11:57:24.318Z,9.70
2019-02-27T11:58:27.798Z,9.18
2019-02-27T11:59:31.243Z,9.90
2019-02-27T12:00:34.830Z,8.90
2019-02-27T12:01:38.352Z,8.45
2019-02-27T12:02:41.924Z,8.80
2019-02-27T12:03:45.945Z,11.55
2019-02-27T12:04:53.484Z,9.80
2019-02-27T12:05:55.406Z,11.40
2019-02-27T12:06:58.857Z,10.63
2019-02-27T12:08:02.289Z,9.83
2019-02-27T12:09:07.571Z,10.38
2019-02-27T12:10:16.772Z,11.40
2019-02-27T12:11:20.211Z,10.78
2019-02-27T12:12:24.164Z,10.63
2019-02-27T12:13:27.677Z,11.25
2019-02-27T12:14:31.231Z,10.55
2019-02-27T12:15:34.770Z,10.72
2019-02-27T12:16:38.211Z,12.75
2019-02-27T12:17:41.727Z,11.60
2019-02-27T12:18:45.169Z,13.15
2019-02-27T12:19:48.734Z,13.65
2019-02-27T12:20:53.927Z,16.15
2019-02-27T12:22:00.222Z,14.80
2019-02-27T12:23:02.766Z,12.53
2019-02-27T12:24:06.270Z,12.98
2019-02-27T12:25:15.005Z,12.30
2019-02-27T12:26:18.528Z,10.78
2019-02-27T12:27:47.409Z,11.33
2019-02-27T12:28:27.381Z,10.08
2019-02-27T12:29:30.970Z,11.95
2019-02-27T12:30:37.118Z,11.40
2019-02-27T12:31:40.016Z,12.33
2019-02-27T12:32:43.621Z,17.27
2019-02-27T12:33:47.157Z,13.85
2019-02-27T12:34:50.733Z,11.43
2019-02-27T12:35:54.363Z,12.43
2019-02-27T12:36:57.957Z,10.03
2019-02-27T12:38:01.403Z,10.50
2019-02-27T12:39:06.588Z,9.93
2019-02-27T12:40:15.714Z,10.10
2019-02-27T12:41:19.249Z,10.45
2019-02-27T12:42:22.754Z,9.45
2019-02-27T12:43:26.253Z,8.95
2019-02-27T12:44:29.793Z,8.15
2019-02-27T12:45:33.402Z,9.53
2019-02-27T12:46:37.098Z,8.67
2019-02-27T12:47:41.384Z,8.40
2019-02-27T12:48:46.431Z,9.10
2019-02-27T12:49:51.571Z,8.10
2019-02-27T12:50:55.383Z,8.40
2019-02-27T12:51:58.956Z,8.80
2019-02-27T12:53:02.646Z,10.33
2019-02-27T12:54:06.195Z,10.50
2019-02-27T12:55:10.355Z,9.17
2019-02-27T12:56:13.942Z,15.57
2019-02-27T12:57:18.151Z,17.63
2019-02-27T12:58:24.406Z,48.07
2019-02-27T12:59:26.977Z,15.53
2019-02-27T13:00:32.023Z,9.87
2019-02-27T13:01:35.473Z,11.13
2019-02-27T13:02:39.004Z,9.70
2019-02-27T13:03:43.055Z,10.30
2019-02-27T13:04:47.219Z,10.70
2019-02-27T13:05:50.653Z,11.23
2019-02-27T13:06:54.364Z,11.90
2019-02-27T13:07:58.063Z,10.80
2019-02-27T13:09:01.581Z,10.77
2019-02-27T13:10:08.183Z,9.40
2019-02-27T13:11:11.629Z,10.10
2019-02-27T13:12:17.344Z,10.97
2019-02-27T13:13:20.326Z,8.80
2019-02-27T13:14:23.859Z,9.50
2019-02-27T13:15:30.740Z,9.07
2019-02-27T13:16:34.182Z,9.13
2019-02-27T13:17:37.682Z,8.87
2019-02-27T13:18:41.213Z,11.43
2019-02-27T13:19:44.674Z,10.47
2019-02-27T13:20:48.115Z,9.37
2019-02-27T13:21:52.305Z,9.67
2019-02-27T13:22:56.931Z,8.87
2019-02-27T13:24:00.379Z,9.13
2019-02-27T13:25:04.947Z,10.30
2019-02-27T13:26:08.382Z,8.80
2019-02-27T13:27:11.833Z,9.20
2019-02-27T13:28:15.698Z,9.13
2019-02-27T13:29:20.606Z,9.07
2019-02-27T13:30:28.996Z,8.40
2019-02-27T13:31:32.444Z,8.30
2019-02-27T13:32:35.963Z,9.30
2019-02-27T13:33:39.407Z,8.80
2019-02-27T13:34:45.323Z,9.97
2019-02-27T13:35:48.068Z,9.10
2019-02-27T13:36:51.505Z,8.57
2019-02-27T13:37:55.011Z,9.00
2019-02-27T13:38:59.370Z,9.00
2019-02-27T13:40:03.125Z,8.97
2019-02-27T13:41:07.671Z,8.33
2019-02-27T13:42:11.933Z,8.00
2019-02-27T13:43:15.451Z,7.80
2019-02-27T13:44:19.064Z,7.50
2019-02-27T13:45:29.113Z,7.90
2019-02-27T13:46:32.570Z,7.60
2019-02-27T13:47:36.019Z,7.90
2019-02-27T13:48:39.879Z,7.93
2019-02-27T13:49:45.056Z,8.10
2019-02-27T13:50:49.223Z,7.67
2019-02-27T13:51:52.908Z,6.93
2019-02-27T13:52:56.420Z,7.63
2019-02-27T13:54:00.545Z,7.50
2019-02-27T13:55:05.661Z,7.60
2019-02-27T13:56:09.215Z,7.10
2019-02-27T13:57:12.733Z,6.30
2019-02-27T13:58:16.310Z,7.30
2019-02-27T13:59:19.749Z,7.30
2019-02-27T14:00:30.462Z,6.93
2019-02-27T14:01:33.897Z,15.80
2019-02-27T14:02:39.437Z,10.67
2019-02-27T14:03:42.699Z,8.20
2019-02-27T14:04:46.133Z,9.60
2019-02-27T14:05:49.725Z,11.07
2019-02-27T14:06:53.170Z,9.77
2019-02-27T14:07:58.484Z,9.50
2019-02-27T14:09:04.420Z,9.63
2019-02-27T14:10:10.820Z,7.73
2019-02-27T14:11:14.398Z,6.70
2019-02-27T14:12:17.871Z,7.20
2019-02-27T14:13:21.360Z,7.60
2019-02-27T14:14:24.944Z,6.53
2019-02-27T14:15:28.514Z,7.00
2019-02-27T14:16:34.854Z,7.00
2019-02-27T14:17:41.396Z,6.80
2019-02-27T14:18:42.499Z,7.00
2019-02-27T14:19:45.995Z,8.50
2019-02-27T14:20:49.456Z,7.03
2019-02-27T14:21:52.972Z,7.20
2019-02-27T14:22:56.487Z,8.23
2019-02-27T14:23:59.980Z,6.80
2019-02-27T14:25:04.209Z,9.93
2019-02-27T14:26:09.072Z,9.97
2019-02-27T14:27:14.577Z,7.93
2019-02-27T14:28:18.332Z,7.50
2019-02-27T14:29:23.146Z,6.87
2019-02-27T14:30:40.801Z,7.70
2019-02-27T14:31:44.390Z,8.80